createdAt,value
2018-05-09T00:00:35.724Z,13.30
2018-05-09T00:03:03.307Z,13.30
2018-05-09T00:08:24.476Z,13.10
2018-05-09T00:10:52.102Z,13.10
2018-05-09T00:13:19.696Z,13.00
2018-05-09T00:15:47.287Z,12.90
2018-05-09T00:18:14.899Z,12.90
2018-05-09T00:20:42.488Z,12.80
2018-05-09T00:23:10.100Z,12.80
2018-05-09T00:25:37.695Z,12.80
2018-05-09T00:28:05.287Z,12.80
2018-05-09T00:30:32.898Z,12.80
2018-05-09T00:33:00.518Z,12.80
2018-05-09T00:35:28.152Z,12.80
2018-05-09T00:37:55.739Z,12.80
2018-05-09T00:40:23.337Z,12.90
2018-05-09T00:42:51.023Z,12.80
2018-05-09T00:45:18.651Z,12.80
2018-05-09T00:47:46.276Z,12.70
2018-05-09T00:50:13.919Z,12.60
2018-05-09T00:52:41.493Z,12.50
2018-05-09T00:55:09.117Z,12.50
2018-05-09T00:57:36.708Z,12.40
2018-05-09T01:00:04.333Z,12.40
2018-05-09T01:02:31.928Z,12.30
2018-05-09T01:04:59.519Z,12.30
2018-05-09T01:07:28.823Z,12.30
2018-05-09T01:09:57.179Z,12.30
2018-05-09T01:12:24.794Z,12.30
2018-05-09T01:14:52.385Z,12.20
2018-05-09T01:17:19.975Z,12.20
2018-05-09T01:19:48.357Z,12.10
2018-05-09T01:22:16.707Z,12.10
2018-05-09T01:24:44.324Z,12.00
2018-05-09T01:27:11.919Z,12.00
2018-05-09T01:29:39.508Z,12.00
2018-05-09T01:32:07.900Z,11.90
2018-05-09T01:34:37.696Z,11.90
2018-05-09T01:37:06.081Z,11.80
2018-05-09T01:39:34.438Z,11.80
2018-05-09T01:42:02.032Z,11.80
2018-05-09T01:44:30.438Z,11.80
2018-05-09T01:46:58.028Z,11.80
2018-05-09T01:49:25.645Z,11.70
2018-05-09T01:51:53.253Z,11.70
2018-05-09T01:54:20.890Z,11.70
2018-05-09T01:56:54.553Z,11.80
2018-05-09T01:59:22.937Z,11.80
2018-05-09T02:01:50.529Z,11.70
2018-05-09T02:04:18.125Z,11.70
2018-05-09T02:06:45.739Z,11.70
2018-05-09T02:09:13.324Z,11.60
2018-05-09T02:11:40.948Z,11.60
2018-05-09T02:14:08.533Z,11.60
2018-05-09T02:16:46.538Z,11.60
2018-05-09T02:19:14.126Z,11.50
2018-05-09T02:21:41.722Z,11.60
2018-05-09T02:24:09.361Z,11.60
2018-05-09T02:26:37.716Z,11.60
2018-05-09T02:29:05.335Z,11.60
2018-05-09T02:31:32.938Z,11.60
2018-05-09T02:34:00.561Z,11.60
2018-05-09T02:36:28.161Z,11.60
2018-05-09T02:38:55.753Z,11.60
2018-05-09T02:41:24.140Z,11.50
2018-05-09T02:43:51.736Z,11.40
2018-05-09T02:46:19.357Z,11.40
2018-05-09T02:49:04.393Z,11.30
2018-05-09T02:51:32.018Z,11.30
2018-05-09T02:53:59.608Z,11.20
2018-05-09T02:56:27.192Z,11.20
2018-05-09T02:58:55.572Z,11.10
2018-05-09T03:01:23.933Z,11.10
2018-05-09T03:03:51.552Z,11.00
2018-05-09T03:06:19.148Z,11.10
2018-05-09T03:08:46.755Z,11.10
2018-05-09T03:11:14.422Z,11.10
2018-05-09T03:13:42.016Z,11.10
2018-05-09T03:16:09.632Z,11.00
2018-05-09T03:18:37.228Z,11.00
2018-05-09T03:21:04.819Z,11.00
2018-05-09T03:23:32.448Z,11.00
2018-05-09T03:26:00.044Z,11.00
2018-05-09T03:28:30.794Z,10.90
2018-05-09T03:30:59.169Z,10.80
2018-05-09T03:33:27.548Z,10.80
2018-05-09T03:35:55.904Z,10.80
2018-05-09T03:38:23.495Z,10.80
2018-05-09T03:40:51.896Z,10.70
2018-05-09T03:43:19.578Z,10.70
2018-05-09T03:45:47.393Z,10.60
2018-05-09T03:48:15.012Z,10.60
2018-05-09T03:50:42.635Z,10.60
2018-05-09T03:53:10.239Z,10.50
2018-05-09T03:55:37.852Z,10.50
2018-05-09T03:58:05.470Z,10.40
2018-05-09T04:00:33.060Z,10.40
2018-05-09T04:03:13.285Z,10.40
2018-05-09T04:05:52.671Z,10.40
2018-05-09T04:08:32.124Z,10.40
2018-05-09T04:10:59.720Z,10.30
2018-05-09T04:13:27.336Z,10.40
2018-05-09T04:15:54.940Z,10.40
2018-05-09T04:18:22.551Z,10.40
2018-05-09T04:20:50.216Z,10.40
2018-05-09T04:23:18.553Z,10.50
2018-05-09T04:25:46.144Z,10.40
2018-05-09T04:28:13.803Z,10.40
2018-05-09T04:30:41.401Z,10.50
2018-05-09T04:33:08.996Z,10.50
2018-05-09T04:35:36.614Z,10.60
2018-05-09T04:40:57.715Z,10.60
2018-05-09T04:43:27.283Z,10.60
2018-05-09T04:45:54.884Z,10.60
2018-05-09T04:48:22.509Z,10.60
2018-05-09T04:51:04.100Z,10.70
2018-05-09T04:53:31.722Z,10.80
2018-05-09T04:55:59.322Z,10.80
2018-05-09T04:58:26.916Z,10.90
2018-05-09T05:00:54.541Z,11.00
2018-05-09T05:03:22.136Z,11.00
2018-05-09T05:05:49.751Z,11.00
2018-05-09T05:08:17.349Z,11.10
2018-05-09T05:10:44.953Z,11.20
2018-05-09T05:13:12.576Z,11.40
2018-05-09T05:15:40.237Z,11.40
2018-05-09T05:18:07.836Z,11.50
2018-05-09T05:20:35.433Z,11.60
2018-05-09T05:23:03.028Z,11.70
2018-05-09T05:25:30.644Z,11.70
2018-05-09T05:27:58.248Z,11.80
2018-05-09T05:30:32.172Z,11.80
2018-05-09T05:32:59.776Z,11.90
2018-05-09T05:35:27.382Z,11.90
2018-05-09T05:37:55.016Z,12.00
2018-05-09T05:40:23.375Z,12.30
2018-05-09T05:42:51.000Z,12.30
2018-05-09T05:45:18.675Z,12.40
2018-05-09T05:47:46.260Z,12.60
2018-05-09T05:50:13.890Z,12.80
2018-05-09T05:52:41.497Z,13.10
2018-05-09T05:55:09.908Z,14.80
2018-05-09T05:57:37.512Z,14.80
2018-05-09T06:00:05.148Z,15.70
2018-05-09T06:02:32.767Z,16.40
2018-05-09T06:05:01.128Z,17.20
2018-05-09T06:07:29.521Z,17.40
2018-05-09T06:09:57.887Z,17.20
2018-05-09T06:12:26.264Z,17.20
2018-05-09T06:14:54.664Z,17.30
2018-05-09T06:17:22.286Z,17.30
2018-05-09T06:19:49.908Z,17.50
2018-05-09T06:22:17.500Z,17.70
2018-05-09T06:24:45.100Z,18.10
2018-05-09T06:27:13.493Z,18.10
2018-05-09T06:29:41.087Z,18.10
2018-05-09T06:32:08.722Z,18.00
2018-05-09T06:34:36.330Z,17.70
2018-05-09T06:37:03.921Z,17.50
2018-05-09T06:39:31.549Z,17.30
2018-05-09T06:41:59.148Z,17.20
2018-05-09T06:44:26.769Z,17.10
2018-05-09T06:46:54.372Z,17.10
2018-05-09T06:49:21.977Z,17.10
2018-05-09T06:51:49.592Z,17.20
2018-05-09T06:54:17.189Z,17.20
2018-05-09T06:56:44.804Z,17.30
2018-05-09T06:59:13.161Z,17.60
2018-05-09T07:01:41.702Z,17.60
2018-05-09T07:04:09.320Z,17.80
2018-05-09T07:06:37.816Z,18.10
2018-05-09T07:09:05.330Z,18.10
2018-05-09T07:11:32.933Z,18.40
2018-05-09T07:14:00.524Z,18.70
2018-05-09T07:16:28.140Z,18.70
2018-05-09T07:18:56.496Z,19.10
2018-05-09T07:21:24.116Z,19.10
2018-05-09T07:23:51.715Z,19.40
2018-05-09T07:26:19.317Z,19.60
2018-05-09T07:28:46.929Z,19.60
2018-05-09T07:31:14.521Z,19.70
2018-05-09T07:33:42.905Z,19.90
2018-05-09T07:36:10.504Z,19.90
2018-05-09T07:38:38.095Z,20.00
2018-05-09T07:41:05.717Z,20.00
2018-05-09T07:43:33.313Z,19.80
2018-05-09T07:46:00.933Z,19.60
2018-05-09T07:48:28.526Z,19.40
2018-05-09T07:50:56.884Z,19.30
2018-05-09T07:53:24.504Z,19.30
2018-05-09T07:55:52.906Z,19.40
2018-05-09T07:58:20.528Z,19.40
2018-05-09T08:00:48.907Z,19.40
2018-05-09T08:03:17.270Z,19.20
2018-05-09T08:05:44.887Z,19.20
2018-05-09T08:08:12.489Z,19.10
2018-05-09T08:10:40.109Z,19.00
2018-05-09T08:13:07.713Z,19.00
2018-05-09T08:15:35.314Z,19.10
2018-05-09T08:18:02.953Z,19.10
2018-05-09T08:20:31.334Z,19.20
2018-05-09T08:22:59.751Z,19.20
2018-05-09T08:25:27.352Z,19.20
2018-05-09T08:27:54.968Z,19.40
2018-05-09T08:30:22.606Z,19.40
2018-05-09T08:32:50.247Z,19.50
2018-05-09T08:35:18.653Z,19.50
2018-05-09T08:37:46.253Z,19.50
2018-05-09T08:40:13.852Z,19.50
2018-05-09T08:42:42.231Z,19.50
2018-05-09T08:45:10.591Z,19.40
2018-05-09T08:47:38.211Z,19.40
2018-05-09T08:50:05.803Z,19.30
2018-05-09T08:52:37.065Z,19.10
2018-05-09T08:55:04.682Z,19.20
2018-05-09T08:57:32.279Z,19.40
2018-05-09T08:59:59.897Z,19.50
2018-05-09T09:02:27.491Z,19.60
2018-05-09T09:04:55.104Z,19.70
2018-05-09T09:07:22.724Z,19.80
2018-05-09T09:09:50.313Z,19.80
2018-05-09T09:12:18.698Z,19.80
2018-05-09T09:14:46.295Z,19.80
2018-05-09T09:17:13.893Z,20.00
2018-05-09T09:19:42.297Z,20.10
2018-05-09T09:22:09.900Z,20.10
2018-05-09T09:24:37.538Z,20.00
2018-05-09T09:27:05.951Z,19.90
2018-05-09T09:29:33.901Z,19.80
2018-05-09T09:32:01.542Z,19.70
2018-05-09T09:34:29.184Z,19.70
2018-05-09T09:36:57.575Z,19.80
2018-05-09T09:39:25.186Z,19.80
2018-05-09T09:41:52.802Z,19.80
2018-05-09T09:44:20.429Z,19.80
2018-05-09T09:46:48.790Z,19.70
2018-05-09T09:49:16.432Z,19.60
2018-05-09T09:51:44.035Z,19.70
2018-05-09T09:54:12.405Z,20.10
2018-05-09T09:56:40.803Z,20.20
2018-05-09T09:59:08.434Z,20.20
2018-05-09T10:01:36.148Z,20.40
2018-05-09T10:04:03.693Z,20.60
2018-05-09T10:06:31.290Z,20.70
2018-05-09T10:08:58.906Z,20.80
2018-05-09T10:11:26.494Z,21.10
2018-05-09T10:13:54.121Z,21.20
2018-05-09T10:16:22.578Z,21.50
2018-05-09T10:21:44.437Z,21.50
2018-05-09T10:24:12.849Z,21.60
2018-05-09T10:26:40.472Z,21.60
2018-05-09T10:29:08.837Z,21.90
2018-05-09T10:31:36.496Z,21.80
2018-05-09T10:34:04.293Z,21.90
2018-05-09T10:36:31.936Z,22.00
2018-05-09T10:38:59.601Z,21.90
2018-05-09T10:41:27.955Z,22.20
2018-05-09T10:43:55.803Z,22.20
2018-05-09T10:46:23.413Z,22.20
2018-05-09T10:48:51.813Z,22.40
2018-05-09T10:51:19.400Z,22.40
2018-05-09T10:53:47.010Z,22.80
2018-05-09T10:56:15.404Z,23.70
2018-05-09T10:58:43.013Z,23.60
2018-05-09T11:01:10.641Z,24.00
2018-05-09T11:03:38.248Z,23.80
2018-05-09T11:06:05.844Z,23.60
2018-05-09T11:08:34.057Z,23.60
2018-05-09T11:11:19.661Z,23.60
2018-05-09T11:13:47.300Z,23.60
2018-05-09T11:16:14.923Z,23.40
2018-05-09T11:18:42.527Z,23.30
2018-05-09T11:21:10.221Z,23.30
2018-05-09T11:23:38.617Z,23.20
2018-05-09T11:26:13.843Z,23.20
2018-05-09T11:28:41.589Z,23.10
2018-05-09T11:31:09.203Z,23.00
2018-05-09T11:33:36.834Z,22.70
2018-05-09T11:36:05.202Z,22.90
2018-05-09T11:38:33.655Z,23.00
2018-05-09T11:41:01.251Z,23.00
2018-05-09T11:43:29.627Z,22.80
2018-05-09T11:45:58.017Z,22.40
2018-05-09T11:48:26.443Z,22.10
2018-05-09T11:50:54.095Z,22.10
2018-05-09T11:53:21.680Z,22.00
2018-05-09T11:55:49.333Z,22.10
2018-05-09T11:58:16.995Z,22.30
2018-05-09T12:00:44.892Z,22.30
2018-05-09T12:03:12.881Z,22.20
2018-05-09T12:05:40.726Z,22.20
2018-05-09T12:08:09.127Z,22.30
2018-05-09T12:10:37.594Z,22.40
2018-05-09T12:13:05.128Z,22.40
2018-05-09T12:15:32.752Z,22.50
2018-05-09T12:18:00.386Z,22.50
2018-05-09T12:20:28.752Z,23.10
2018-05-09T12:23:00.135Z,23.10
2018-05-09T12:25:27.785Z,23.10
2018-05-09T12:27:55.425Z,23.10
2018-05-09T12:30:23.827Z,23.10
2018-05-09T12:32:51.421Z,23.10
2018-05-09T12:35:19.029Z,23.20
2018-05-09T12:38:04.014Z,23.40
2018-05-09T12:40:31.650Z,23.40
2018-05-09T12:42:59.233Z,23.20
2018-05-09T12:45:27.588Z,23.20
2018-05-09T12:47:55.217Z,23.20
2018-05-09T12:50:22.822Z,23.10
2018-05-09T12:52:51.248Z,22.90
2018-05-09T12:55:18.841Z,22.90
2018-05-09T12:57:47.940Z,22.80
2018-05-09T13:00:15.559Z,22.80
2018-05-09T13:02:43.168Z,22.70
2018-05-09T13:05:11.597Z,22.60
2018-05-09T13:07:39.190Z,22.50
2018-05-09T13:10:06.799Z,22.70
2018-05-09T13:12:34.409Z,23.00
2018-05-09T13:15:02.006Z,23.10
2018-05-09T13:17:30.529Z,23.80
2018-05-09T13:19:58.161Z,23.70
2018-05-09T13:22:26.667Z,24.40
2018-05-09T13:24:54.376Z,24.70
2018-05-09T13:27:25.200Z,25.00
2018-05-09T13:29:52.836Z,25.00
2018-05-09T13:32:20.431Z,24.70
2018-05-09T13:34:48.058Z,24.70
2018-05-09T13:37:15.674Z,23.90
2018-05-09T13:39:44.047Z,23.70
2018-05-09T13:42:12.435Z,23.70
2018-05-09T13:44:40.067Z,23.80
2018-05-09T13:47:07.677Z,23.60
2018-05-09T13:49:35.293Z,23.60
2018-05-09T13:52:03.664Z,23.80
2018-05-09T13:54:31.286Z,23.80
2018-05-09T13:56:58.869Z,24.00
2018-05-09T13:59:26.453Z,24.20
2018-05-09T14:01:54.843Z,24.50
2018-05-09T14:04:22.458Z,24.50
2018-05-09T14:06:50.068Z,24.80
2018-05-09T14:09:18.440Z,24.80
2018-05-09T14:11:46.805Z,24.80
2018-05-09T14:14:14.419Z,24.80
2018-05-09T14:16:42.013Z,25.00
2018-05-09T14:19:09.645Z,25.30
2018-05-09T14:21:37.244Z,25.50
2018-05-09T14:24:04.842Z,25.70
2018-05-09T14:26:32.451Z,25.90
2018-05-09T14:29:00.045Z,25.80
2018-05-09T14:31:28.429Z,26.00
2018-05-09T14:33:56.032Z,26.00
2018-05-09T14:36:23.636Z,26.10
2018-05-09T14:38:52.036Z,26.20
2018-05-09T14:41:19.628Z,26.10
2018-05-09T14:43:47.249Z,26.10
2018-05-09T14:46:14.844Z,25.60
2018-05-09T14:48:42.432Z,25.10
2018-05-09T14:51:10.060Z,25.30
2018-05-09T14:53:37.656Z,25.40
2018-05-09T14:56:05.286Z,25.30
2018-05-09T14:58:32.875Z,25.30
2018-05-09T15:01:00.461Z,25.20
2018-05-09T15:03:28.848Z,24.70
2018-05-09T15:05:57.216Z,24.20
2018-05-09T15:08:25.602Z,23.90
2018-05-09T15:10:53.963Z,23.90
2018-05-09T15:13:24.499Z,23.90
2018-05-09T15:15:52.884Z,24.30
2018-05-09T15:18:21.236Z,24.50
2018-05-09T15:20:48.854Z,24.40
2018-05-09T15:23:19.584Z,24.70
2018-05-09T15:25:47.185Z,25.20
2018-05-09T15:28:14.803Z,25.50
2018-05-09T15:30:42.427Z,26.00
2018-05-09T15:33:10.057Z,26.30
2018-05-09T15:35:37.649Z,26.30
2018-05-09T15:38:06.039Z,26.40
2018-05-09T15:40:34.413Z,26.30
2018-05-09T15:43:02.808Z,25.70
2018-05-09T15:45:30.406Z,25.70
2018-05-09T15:47:57.999Z,25.40
2018-05-09T15:50:25.622Z,25.20
2018-05-09T15:52:53.217Z,25.10
2018-05-09T15:55:20.837Z,25.00
2018-05-09T15:57:48.440Z,24.80
2018-05-09T16:00:16.045Z,24.60
2018-05-09T16:02:43.665Z,24.40
2018-05-09T16:05:11.251Z,24.20
2018-05-09T16:07:38.878Z,24.20
2018-05-09T16:10:06.473Z,24.20
2018-05-09T16:12:34.065Z,24.00
2018-05-09T16:15:01.688Z,23.90
2018-05-09T16:17:30.067Z,23.80
2018-05-09T16:19:58.451Z,23.80
2018-05-09T16:22:26.052Z,23.80
2018-05-09T16:24:53.644Z,23.90
2018-05-09T16:27:22.035Z,24.00
2018-05-09T16:29:50.386Z,23.90
2018-05-09T16:32:18.009Z,23.80
2018-05-09T16:34:45.599Z,23.70
2018-05-09T16:37:13.194Z,23.50
2018-05-09T16:39:41.582Z,23.30
2018-05-09T16:42:15.609Z,23.30
2018-05-09T16:44:43.225Z,23.20
2018-05-09T16:47:10.817Z,23.30
2018-05-09T16:49:39.176Z,23.30
2018-05-09T16:52:07.548Z,23.30
2018-05-09T16:54:35.148Z,23.30
2018-05-09T16:57:02.761Z,23.40
2018-05-09T16:59:30.355Z,23.40
2018-05-09T17:01:57.948Z,23.40
2018-05-09T17:04:25.572Z,23.40
2018-05-09T17:06:53.921Z,23.50
2018-05-09T17:12:15.035Z,23.30
2018-05-09T17:14:42.917Z,23.20
2018-05-09T17:17:11.307Z,23.20
2018-05-09T17:19:39.675Z,23.00
2018-05-09T17:22:24.976Z,23.00
2018-05-09T17:24:53.399Z,22.80
2018-05-09T17:27:20.983Z,22.80
2018-05-09T17:29:48.568Z,22.90
2018-05-09T17:32:16.927Z,22.90
2018-05-09T17:34:44.545Z,22.90
2018-05-09T17:37:12.141Z,22.70
2018-05-09T17:39:39.760Z,22.60
2018-05-09T17:42:07.361Z,22.40
2018-05-09T17:44:34.959Z,22.10
2018-05-09T17:47:02.724Z,21.90
2018-05-09T17:49:30.319Z,21.60
2018-05-09T17:51:57.951Z,21.50
2018-05-09T17:54:25.589Z,21.20
2018-05-09T17:56:53.169Z,21.10
2018-05-09T17:59:20.792Z,20.90
2018-05-09T18:01:48.394Z,20.90
2018-05-09T18:04:16.009Z,20.80
2018-05-09T18:06:43.684Z,20.70
2018-05-09T18:09:11.224Z,20.60
2018-05-09T18:11:38.851Z,20.40
2018-05-09T18:14:06.433Z,20.20
2018-05-09T18:16:34.048Z,20.10
2018-05-09T18:19:02.035Z,20.00
2018-05-09T18:21:29.652Z,20.00
2018-05-09T18:23:57.281Z,19.90
2018-05-09T18:26:24.885Z,19.80
2018-05-09T18:28:53.287Z,19.50
2018-05-09T18:31:21.127Z,19.50
2018-05-09T18:33:49.488Z,19.30
2018-05-09T18:36:17.105Z,19.30
2018-05-09T18:38:44.712Z,19.20
2018-05-09T18:41:12.580Z,19.10
2018-05-09T18:43:40.828Z,19.00
2018-05-09T18:46:08.845Z,18.90
2018-05-09T18:48:37.244Z,18.70
2018-05-09T18:51:04.843Z,18.70
2018-05-09T18:53:32.468Z,18.60
2018-05-09T18:56:00.061Z,18.50
2018-05-09T18:58:27.655Z,18.30
2018-05-09T19:00:55.292Z,18.20
2018-05-09T19:03:24.814Z,18.10
2018-05-09T19:05:52.510Z,18.00
2018-05-09T19:08:20.139Z,17.90
2018-05-09T19:10:48.097Z,17.90
2018-05-09T19:13:15.729Z,17.80
2018-05-09T19:15:43.334Z,17.80
2018-05-09T19:18:11.790Z,17.80
2018-05-09T19:20:39.449Z,17.80
2018-05-09T19:23:07.070Z,17.80
2018-05-09T19:25:35.588Z,17.90
2018-05-09T19:28:03.240Z,17.90
2018-05-09T19:30:30.831Z,18.00
2018-05-09T19:32:58.445Z,18.00
2018-05-09T19:35:26.060Z,18.10
2018-05-09T19:37:54.441Z,18.10
2018-05-09T19:40:42.394Z,18.10
2018-05-09T19:43:10.740Z,18.10
2018-05-09T19:45:44.562Z,18.10
2018-05-09T19:48:12.930Z,18.00
2018-05-09T19:50:40.521Z,18.00
2018-05-09T19:53:10.125Z,18.00
2018-05-09T19:55:38.500Z,18.00
2018-05-09T19:58:06.884Z,18.00
2018-05-09T20:00:34.479Z,18.00
2018-05-09T20:03:09.272Z,18.00
2018-05-09T20:05:37.628Z,17.90
2018-05-09T20:08:11.623Z,17.90
2018-05-09T20:10:39.280Z,17.90
2018-05-09T20:13:06.877Z,17.80
2018-05-09T20:15:43.004Z,17.80
2018-05-09T20:18:20.778Z,17.70
2018-05-09T20:20:48.409Z,17.70
2018-05-09T20:23:26.232Z,17.60
2018-05-09T20:25:53.878Z,17.60
2018-05-09T20:28:21.589Z,17.60
2018-05-09T20:30:54.802Z,17.60
2018-05-09T20:36:17.193Z,17.70
2018-05-09T20:38:44.793Z,17.20
2018-05-09T20:41:31.196Z,16.20
2018-05-09T20:44:02.976Z,14.70
2018-05-09T20:46:32.266Z,14.30
2018-05-09T20:48:59.913Z,14.30
2018-05-09T20:51:45.546Z,14.10
2018-05-09T20:54:21.193Z,14.00
2018-05-09T20:56:49.569Z,13.90
2018-05-09T20:59:17.206Z,13.70
2018-05-09T21:01:47.447Z,13.60
2018-05-09T21:04:15.109Z,13.50
2018-05-09T21:06:43.485Z,13.50
2018-05-09T21:09:11.938Z,13.60
2018-05-09T21:11:39.629Z,13.50
2018-05-09T21:14:07.986Z,13.60
2018-05-09T21:16:36.383Z,13.60
2018-05-09T21:19:04.752Z,13.60
2018-05-09T21:21:33.138Z,13.60
2018-05-09T21:24:01.534Z,13.60
2018-05-09T21:26:29.149Z,13.50
2018-05-09T21:28:56.773Z,13.60
2018-05-09T21:31:24.412Z,13.50
2018-05-09T21:33:52.016Z,13.50
2018-05-09T21:36:19.642Z,13.50
2018-05-09T21:38:47.266Z,13.60
2018-05-09T21:41:14.865Z,13.60
2018-05-09T21:43:42.490Z,13.60
2018-05-09T21:46:10.110Z,13.50
2018-05-09T21:48:37.756Z,13.50
2018-05-09T21:51:05.370Z,13.50
2018-05-09T21:53:32.974Z,13.50
2018-05-09T21:56:00.630Z,13.50
2018-05-09T21:58:47.958Z,13.60
2018-05-09T22:01:15.598Z,13.50
2018-05-09T22:03:43.204Z,13.50
2018-05-09T22:06:10.800Z,13.50
2018-05-09T22:08:56.353Z,13.50
2018-05-09T22:11:24.864Z,13.50
2018-05-09T22:13:53.265Z,13.50
2018-05-09T22:16:20.857Z,13.50
2018-05-09T22:18:48.524Z,13.60
2018-05-09T22:21:16.872Z,13.60
2018-05-09T22:23:44.469Z,13.60
2018-05-09T22:26:12.105Z,13.60
2018-05-09T22:28:39.700Z,13.70
2018-05-09T22:31:07.308Z,13.70
2018-05-09T22:33:34.931Z,13.80
2018-05-09T22:36:02.536Z,13.80
2018-05-09T22:38:30.165Z,13.80
2018-05-09T22:40:57.764Z,13.70
2018-05-09T22:43:25.364Z,13.70
2018-05-09T22:45:52.988Z,13.70
2018-05-09T22:48:20.621Z,13.70
2018-05-09T22:50:48.265Z,13.70
2018-05-09T22:53:15.860Z,13.70
2018-05-09T22:55:43.450Z,13.70
2018-05-09T22:58:11.070Z,13.60
2018-05-09T23:00:38.668Z,13.60
2018-05-09T23:03:06.294Z,13.60
2018-05-09T23:05:33.902Z,13.50
2018-05-09T23:08:01.508Z,13.60
2018-05-09T23:10:29.908Z,13.60
2018-05-09T23:12:57.496Z,13.60
2018-05-09T23:15:25.112Z,13.70
2018-05-09T23:17:52.709Z,13.70
2018-05-09T23:20:20.304Z,13.70
2018-05-09T23:22:47.932Z,13.70
2018-05-09T23:25:15.532Z,13.60
2018-05-09T23:27:43.162Z,13.50
2018-05-09T23:30:10.758Z,13.50
2018-05-09T23:32:39.119Z,13.50
2018-05-09T23:35:06.740Z,13.50
2018-05-09T23:37:38.016Z,13.50
2018-05-09T23:40:05.644Z,13.60
2018-05-09T23:42:33.237Z,13.60
2018-05-09T23:45:00.844Z,13.60
2018-05-09T23:47:28.452Z,13.50
2018-05-09T23:49:56.042Z,13.50
2018-05-09T23:52:23.684Z,13.50
2018-05-09T23:54:51.280Z,13.50
2018-05-09T23:57:19.644Z,13.60
2018-05-09T23:59:48.027Z,13.60
